createdAt,value
2022-08-11T00:01:25.251Z,19.70
2022-08-11T00:04:00.507Z,19.60
2022-08-11T00:06:32.145Z,19.50
2022-08-11T00:09:02.351Z,19.41
2022-08-11T00:11:37.075Z,19.33
2022-08-11T00:14:08.349Z,19.25
2022-08-11T00:16:37.997Z,19.20
2022-08-11T00:19:11.519Z,19.16
2022-08-11T00:22:04.937Z,19.11
2022-08-11T00:24:38.680Z,19.06
2022-08-11T00:27:34.667Z,19.02
2022-08-11T00:30:05.613Z,18.99
2022-08-11T00:32:35.691Z,19.00
2022-08-11T00:35:51.649Z,19.00
2022-08-11T00:38:00.149Z,18.98
2022-08-11T00:40:37.371Z,18.98
2022-08-11T00:43:20.506Z,18.99
2022-08-11T00:46:11.063Z,19.03
2022-08-11T00:48:48.388Z,19.06
2022-08-11T00:51:27.810Z,19.09
2022-08-11T00:54:35.273Z,19.16
2022-08-11T00:57:36.771Z,19.25
2022-08-11T01:00:18.635Z,19.33
2022-08-11T01:02:57.048Z,19.35
2022-08-11T01:05:39.816Z,19.35
2022-08-11T01:08:41.334Z,19.36
2022-08-11T01:11:28.072Z,19.38
2022-08-11T01:14:33.709Z,19.41
2022-08-11T01:17:16.750Z,19.44
2022-08-11T01:20:45.415Z,19.51
2022-08-11T01:23:44.467Z,19.52
2022-08-11T01:26:55.769Z,19.55
2022-08-11T01:29:56.861Z,19.56
2022-08-11T01:33:02.064Z,19.56
2022-08-11T01:35:51.538Z,19.56
2022-08-11T01:38:33.628Z,19.57
2022-08-11T01:41:23.417Z,19.62
2022-08-11T01:44:27.953Z,19.65
2022-08-11T01:47:05.238Z,19.67
2022-08-11T01:50:08.228Z,19.69
2022-08-11T01:52:42.431Z,19.69
2022-08-11T01:55:17.186Z,19.68
2022-08-11T01:57:53.408Z,19.67
2022-08-11T02:00:28.971Z,19.66
2022-08-11T02:03:09.632Z,19.64
2022-08-11T02:06:01.089Z,19.62
2022-08-11T02:08:49.543Z,19.63
2022-08-11T02:11:37.472Z,19.66
2022-08-11T02:14:21.236Z,19.68
2022-08-11T02:17:05.706Z,19.69
2022-08-11T02:19:56.540Z,19.69
2022-08-11T02:22:46.581Z,19.69
2022-08-11T02:25:24.961Z,19.69
2022-08-11T04:11:05.344Z,19.06
2022-08-11T04:13:44.326Z,19.07
2022-08-11T04:16:16.942Z,19.09
2022-08-11T04:19:31.620Z,19.07
2022-08-11T04:22:36.985Z,19.04
2022-08-11T04:25:32.201Z,19.01
2022-08-11T04:28:28.494Z,19.00
2022-08-11T04:31:11.588Z,19.00
2022-08-11T04:34:11.046Z,18.99
2022-08-11T04:37:12.736Z,18.98
2022-08-11T04:40:17.654Z,18.93
2022-08-11T04:43:20.760Z,18.89
2022-08-11T04:46:09.105Z,18.88
2022-08-11T04:49:13.608Z,18.86
2022-08-11T04:52:35.930Z,18.88
2022-08-11T04:55:37.720Z,18.87
2022-08-11T04:58:30.118Z,18.88
2022-08-11T05:01:26.073Z,18.93
2022-08-11T05:04:35.119Z,19.03
2022-08-11T05:07:58.198Z,19.18
2022-08-11T05:10:43.103Z,19.27
2022-08-11T05:13:37.905Z,19.39
2022-08-11T05:16:28.720Z,19.50
2022-08-11T05:19:11.220Z,19.62
2022-08-11T05:21:55.440Z,19.71
2022-08-11T05:24:41.644Z,19.83
2022-08-11T05:27:25.565Z,19.95
2022-08-11T05:30:13.517Z,20.05
2022-08-11T05:33:02.186Z,20.12
2022-08-11T05:36:01.335Z,20.20
2022-08-11T05:38:40.306Z,20.25
2022-08-11T05:41:22.676Z,20.38
2022-08-11T05:44:20.474Z,20.49
2022-08-11T05:47:04.699Z,20.59
2022-08-11T05:49:50.354Z,20.72
2022-08-11T05:52:41.773Z,20.83
2022-08-11T05:55:26.038Z,20.97
2022-08-11T05:57:59.222Z,21.06
2022-08-11T06:00:29.103Z,21.13
2022-08-11T06:03:06.380Z,21.25
2022-08-11T06:05:43.472Z,21.36
2022-08-11T06:08:15.166Z,21.45
2022-08-11T06:10:47.541Z,21.55
2022-08-11T06:13:18.834Z,21.66
2022-08-11T06:15:49.745Z,21.79
2022-08-11T06:18:20.033Z,21.89
2022-08-11T06:20:54.873Z,22.02
2022-08-11T06:23:26.324Z,22.13
2022-08-11T06:25:56.973Z,22.27
2022-08-11T06:28:34.262Z,22.48
2022-08-11T06:31:05.597Z,22.76
2022-08-11T06:33:39.743Z,23.14
2022-08-11T06:36:18.269Z,23.94
2022-08-11T06:38:56.894Z,25.12
2022-08-11T06:41:33.233Z,26.39
2022-08-11T06:44:10.345Z,27.66
2022-08-11T06:46:42.668Z,28.78
2022-08-11T06:49:46.362Z,29.87
2022-08-11T06:52:35.153Z,31.15
2022-08-11T06:55:54.845Z,32.19
2022-08-11T06:58:12.149Z,33.04
2022-08-11T07:00:43.449Z,33.85
2022-08-11T07:03:15.165Z,34.47
2022-08-11T07:05:51.058Z,35.11
2022-08-11T07:08:55.885Z,35.47
2022-08-11T07:12:15.484Z,35.87
2022-08-11T07:15:04.495Z,36.01
2022-08-11T07:17:35.438Z,36.24
2022-08-11T07:20:31.312Z,36.56
2022-08-11T07:23:14.872Z,37.09
2022-08-11T07:26:04.328Z,37.70
2022-08-11T07:28:47.164Z,38.34
2022-08-11T07:31:17.746Z,38.95
2022-08-11T07:34:07.785Z,39.46
2022-08-11T07:36:42.879Z,40.05
2022-08-11T07:39:18.569Z,40.30
2022-08-11T07:41:51.132Z,40.10
2022-08-11T07:44:20.492Z,39.93
2022-08-11T07:47:04.896Z,39.81
2022-08-11T07:49:51.187Z,40.05
2022-08-11T07:52:29.787Z,40.22
2022-08-11T07:55:03.340Z,40.28
2022-08-11T07:58:14.304Z,40.57
2022-08-11T08:00:52.174Z,40.59
2022-08-11T08:03:35.022Z,40.91
2022-08-11T08:06:36.358Z,41.41
2022-08-11T08:09:19.694Z,41.68
2022-08-11T08:12:02.134Z,41.89
2022-08-11T08:14:46.585Z,42.21
2022-08-11T08:17:29.117Z,42.53
2022-08-11T08:19:59.022Z,42.78
2022-08-11T08:22:38.964Z,43.01
2022-08-11T08:25:10.771Z,43.10
2022-08-11T08:27:43.617Z,43.12
2022-08-11T08:30:29.461Z,43.16
2022-08-11T08:33:01.047Z,43.21
2022-08-11T08:35:33.088Z,43.41
2022-08-11T08:38:03.272Z,43.83
2022-08-11T08:40:33.281Z,44.11
2022-08-11T08:43:08.524Z,44.48
2022-08-11T08:45:42.927Z,44.56
2022-08-11T08:48:16.172Z,44.72
2022-08-11T08:51:17.360Z,44.91
2022-08-11T08:53:56.384Z,44.84
2022-08-11T08:56:29.609Z,44.99
2022-08-11T08:59:00.312Z,45.23
2022-08-11T09:01:34.874Z,45.50
2022-08-11T09:04:10.751Z,45.49
2022-08-11T09:06:43.819Z,45.12
2022-08-11T09:09:18.621Z,45.21
2022-08-11T09:11:54.331Z,45.16
2022-08-11T09:14:46.568Z,45.10
2022-08-11T09:17:18.617Z,45.03
2022-08-11T09:19:49.550Z,44.75
2022-08-11T09:22:41.257Z,44.90
2022-08-11T09:25:24.277Z,45.12
2022-08-11T09:27:56.559Z,45.50
2022-08-11T09:30:27.189Z,45.71
2022-08-11T09:33:02.480Z,45.91
2022-08-11T09:35:33.607Z,45.98
2022-08-11T09:38:16.513Z,45.87
2022-08-11T09:40:56.256Z,45.28
2022-08-11T09:43:39.722Z,45.01
2022-08-11T09:46:09.853Z,45.24
2022-08-11T09:48:45.136Z,45.10
2022-08-11T09:51:15.873Z,44.57
2022-08-11T09:54:02.693Z,44.48
2022-08-11T09:56:46.858Z,44.79
2022-08-11T09:59:16.774Z,44.60
2022-08-11T10:01:49.592Z,44.27
2022-08-11T10:04:28.679Z,43.99
2022-08-11T10:07:01.885Z,43.71
2022-08-11T10:09:40.053Z,43.13
2022-08-11T10:12:12.986Z,42.75
2022-08-11T10:14:59.269Z,42.39
2022-08-11T10:17:29.487Z,41.76
2022-08-11T10:20:04.821Z,40.84
2022-08-11T10:22:49.290Z,39.72
2022-08-11T10:25:31.744Z,38.60
2022-08-11T10:28:32.884Z,37.47
2022-08-11T10:31:03.861Z,36.41
2022-08-11T10:33:59.219Z,35.39
2022-08-11T10:36:32.328Z,34.16
2022-08-11T10:39:03.450Z,33.28
2022-08-11T10:42:08.475Z,32.64
2022-08-11T10:44:40.259Z,32.18
2022-08-11T10:47:23.486Z,31.95
2022-08-11T10:50:13.140Z,31.68
2022-08-11T10:52:58.674Z,31.47
2022-08-11T10:55:41.362Z,31.29
2022-08-11T10:58:24.263Z,31.09
2022-08-11T11:00:57.034Z,30.90
2022-08-11T11:03:28.218Z,30.79
2022-08-11T11:06:27.525Z,30.68
2022-08-11T11:09:04.139Z,30.56
2022-08-11T11:11:50.989Z,30.44
2022-08-11T11:14:34.985Z,30.29
2022-08-11T11:17:18.528Z,30.12
2022-08-11T11:19:48.868Z,30.05
2022-08-11T11:22:31.723Z,30.05
2022-08-11T11:25:16.796Z,30.08
2022-08-11T11:27:59.739Z,30.11
2022-08-11T11:30:36.901Z,30.15
2022-08-11T11:33:11.984Z,30.20
2022-08-11T11:35:52.885Z,30.23
2022-08-11T11:38:22.957Z,30.21
2022-08-11T11:41:08.109Z,30.18
2022-08-11T11:43:39.361Z,30.20
2022-08-11T11:46:10.731Z,30.17
2022-08-11T11:48:40.356Z,30.09
2022-08-11T11:51:13.987Z,30.05
2022-08-11T11:53:45.735Z,30.04
2022-08-11T11:56:18.629Z,30.03
2022-08-11T11:59:01.028Z,30.03
2022-08-11T12:01:31.044Z,30.04
2022-08-11T12:04:00.818Z,30.05
2022-08-11T12:06:30.475Z,30.10
2022-08-11T12:09:01.195Z,30.14
2022-08-11T12:11:46.721Z,30.16
2022-08-11T12:14:19.455Z,30.14
2022-08-11T12:16:51.176Z,30.11
2022-08-11T12:19:22.441Z,30.09
2022-08-11T12:22:10.157Z,30.11
2022-08-11T12:24:53.434Z,30.21
2022-08-11T12:27:26.198Z,30.31
2022-08-11T12:29:59.305Z,30.33
2022-08-11T12:32:30.859Z,30.33
2022-08-11T12:35:01.533Z,30.27
2022-08-11T12:37:34.035Z,30.18
2022-08-11T12:40:49.631Z,30.15
2022-08-11T12:43:37.145Z,30.18
2022-08-11T12:46:11.739Z,30.21
2022-08-11T12:49:02.018Z,30.25
2022-08-11T12:52:11.286Z,30.26
2022-08-11T12:54:44.381Z,30.24
2022-08-11T12:57:37.286Z,30.18
2022-08-11T13:00:24.633Z,30.12
2022-08-11T13:03:06.924Z,30.13
2022-08-11T13:05:44.466Z,30.11
2022-08-11T13:08:15.460Z,30.11
2022-08-11T13:10:58.422Z,30.12
2022-08-11T13:13:55.312Z,30.17
2022-08-11T13:16:20.918Z,30.23
2022-08-11T13:18:50.930Z,30.24
2022-08-11T13:21:24.200Z,30.21
2022-08-11T13:24:01.353Z,30.25
2022-08-11T13:26:47.899Z,30.31
2022-08-11T13:29:24.859Z,30.34
2022-08-11T13:31:59.827Z,30.31
2022-08-11T13:34:31.149Z,30.31
2022-08-11T13:37:04.271Z,30.32
2022-08-11T13:39:35.226Z,30.34
2022-08-11T13:42:06.590Z,30.37
2022-08-11T13:44:38.679Z,30.38
2022-08-11T13:47:11.923Z,30.40
2022-08-11T13:49:42.547Z,30.40
2022-08-11T13:52:13.909Z,30.42
2022-08-11T13:54:45.374Z,30.43
2022-08-11T13:58:08.441Z,30.39
2022-08-11T14:00:27.677Z,30.33
2022-08-11T14:03:01.107Z,30.32
2022-08-11T14:05:33.998Z,30.32
2022-08-11T14:08:06.147Z,30.35
2022-08-11T14:10:37.207Z,30.36
2022-08-11T14:13:23.679Z,30.38
2022-08-11T14:15:54.754Z,30.38
2022-08-11T14:18:29.721Z,30.34
2022-08-11T14:21:16.570Z,30.33
2022-08-11T14:23:49.451Z,30.35
2022-08-11T14:26:29.589Z,30.35
2022-08-11T14:29:02.327Z,30.38
2022-08-11T14:31:34.834Z,30.42
2022-08-11T14:34:10.418Z,30.45
2022-08-11T14:36:41.864Z,30.45
2022-08-11T14:39:17.143Z,30.46
2022-08-11T14:42:11.845Z,30.49
2022-08-11T14:44:57.358Z,30.54
2022-08-11T14:47:27.309Z,30.59
2022-08-11T14:50:10.961Z,30.63
2022-08-11T14:52:46.217Z,30.65
2022-08-11T14:55:28.773Z,30.67
2022-08-11T14:57:58.960Z,30.68
2022-08-11T15:00:29.034Z,30.71
2022-08-11T15:03:11.199Z,30.71
2022-08-11T15:05:56.616Z,30.70
2022-08-11T15:08:45.266Z,30.71
2022-08-11T15:11:28.248Z,30.69
2022-08-11T15:13:59.644Z,30.69
2022-08-11T15:16:42.657Z,30.69
2022-08-11T15:19:12.806Z,30.69
2022-08-11T15:21:57.614Z,30.69
2022-08-11T15:24:27.986Z,30.70
2022-08-11T15:27:14.212Z,30.70
2022-08-11T15:29:56.972Z,30.70
2022-08-11T15:32:39.417Z,30.70
2022-08-11T15:35:22.399Z,30.68
2022-08-11T15:37:58.914Z,30.68
2022-08-11T15:40:45.296Z,30.65
2022-08-11T15:43:31.716Z,30.65
2022-08-11T15:46:03.503Z,30.64
2022-08-11T15:48:39.947Z,30.62
2022-08-11T15:51:13.220Z,30.58
2022-08-11T15:53:56.838Z,30.55
2022-08-11T15:56:28.013Z,30.50
2022-08-11T15:59:40.742Z,30.47
2022-08-11T16:02:16.223Z,30.42
2022-08-11T16:04:47.680Z,30.37
2022-08-11T16:07:18.900Z,30.31
2022-08-11T16:10:00.037Z,30.27
2022-08-11T16:12:32.225Z,30.24
2022-08-11T16:15:19.937Z,30.21
2022-08-11T16:17:53.154Z,30.16
2022-08-11T16:20:24.731Z,30.12
2022-08-11T16:23:01.962Z,30.08
2022-08-11T16:26:30.390Z,30.07
2022-08-11T16:28:28.195Z,30.05
2022-08-11T16:30:58.012Z,30.03
2022-08-11T16:33:49.963Z,29.99
2022-08-11T16:36:32.200Z,29.95
2022-08-11T16:39:02.854Z,29.92
2022-08-11T16:41:49.460Z,29.92
2022-08-11T16:44:37.773Z,29.91
2022-08-11T16:47:08.871Z,29.89
2022-08-11T16:49:40.336Z,29.86
2022-08-11T16:52:12.833Z,29.85
2022-08-11T16:54:44.531Z,29.82
2022-08-11T16:57:32.785Z,29.79
2022-08-11T17:00:06.262Z,29.75
2022-08-11T17:02:50.829Z,29.72
2022-08-11T17:05:38.305Z,29.68
2022-08-11T17:08:36.350Z,29.62
2022-08-11T17:11:19.072Z,29.57
2022-08-11T17:13:55.138Z,29.51
2022-08-11T17:16:27.780Z,29.44
2022-08-11T17:19:01.245Z,29.38
2022-08-11T17:21:33.853Z,29.33
2022-08-11T17:24:08.433Z,29.25
2022-08-11T17:26:58.843Z,29.20
2022-08-11T17:29:33.529Z,29.14
2022-08-11T17:32:55.882Z,29.08
2022-08-11T17:35:31.263Z,28.99
2022-08-11T17:38:04.672Z,28.92
2022-08-11T17:40:37.209Z,28.90
2022-08-11T17:43:20.330Z,28.87
2022-08-11T17:46:04.997Z,28.83
2022-08-11T17:48:38.040Z,28.79
2022-08-11T17:51:34.959Z,28.75
2022-08-11T17:54:26.086Z,28.69
2022-08-11T17:57:20.405Z,28.64
2022-08-11T17:59:57.024Z,28.56
2022-08-11T18:02:47.486Z,28.49
2022-08-11T18:05:18.277Z,28.44
2022-08-11T18:08:01.596Z,28.39
2022-08-11T18:10:45.516Z,28.31
2022-08-11T18:13:27.877Z,28.20
2022-08-11T18:16:10.070Z,28.13
2022-08-11T18:18:54.892Z,28.06
2022-08-11T18:21:37.244Z,27.97
2022-08-11T18:24:24.274Z,27.91
2022-08-11T18:27:06.603Z,27.84
2022-08-11T18:29:50.358Z,27.77
2022-08-11T18:32:49.018Z,27.68
2022-08-11T18:35:35.087Z,27.60
2022-08-11T18:38:18.857Z,27.51
2022-08-11T18:41:02.242Z,27.43
2022-08-11T18:43:45.141Z,27.36
2022-08-11T18:46:28.709Z,27.30
2022-08-11T18:49:15.892Z,27.23
2022-08-11T18:52:04.040Z,27.15
2022-08-11T18:54:51.218Z,27.06
2022-08-11T18:57:47.061Z,26.96
2022-08-11T19:00:37.184Z,26.82
2022-08-11T19:03:20.922Z,26.72
2022-08-11T19:06:35.358Z,26.63
2022-08-11T19:09:09.423Z,26.52
2022-08-11T19:11:52.541Z,26.47
2022-08-11T19:14:34.798Z,26.44
2022-08-11T19:17:43.563Z,26.38
2022-08-11T19:20:23.135Z,26.29
2022-08-11T19:23:06.548Z,26.24
2022-08-11T19:25:51.611Z,26.14
2022-08-11T19:28:34.634Z,26.06
2022-08-11T19:31:17.126Z,26.00
2022-08-11T19:34:09.742Z,25.98
2022-08-11T19:36:53.407Z,25.92
2022-08-11T19:39:36.339Z,25.85
2022-08-11T19:42:22.826Z,25.78
2022-08-11T19:45:05.305Z,25.72
2022-08-11T19:47:47.566Z,25.64
2022-08-11T19:50:29.956Z,25.59
2022-08-11T19:53:17.289Z,25.53
2022-08-11T19:56:00.730Z,25.46
2022-08-11T19:58:45.599Z,25.44
2022-08-11T20:01:27.708Z,25.40
2022-08-11T20:04:09.929Z,25.40
2022-08-11T20:06:52.175Z,25.39
2022-08-11T20:10:04.668Z,25.39
2022-08-11T20:12:37.768Z,25.35
2022-08-11T20:15:24.559Z,25.28
2022-08-11T20:18:07.733Z,25.21
2022-08-11T20:20:50.203Z,25.14
2022-08-11T20:23:32.641Z,25.07
2022-08-11T20:26:31.878Z,25.00
2022-08-11T20:29:15.533Z,24.92
2022-08-11T20:32:01.070Z,24.86
2022-08-11T20:34:50.154Z,24.82
2022-08-11T20:37:35.397Z,24.77
2022-08-11T20:40:23.558Z,24.70
2022-08-11T20:43:06.352Z,24.63
2022-08-11T20:46:08.527Z,24.57
2022-08-11T20:48:55.646Z,24.52
2022-08-11T20:51:38.711Z,24.50
2022-08-11T20:54:41.981Z,24.49
2022-08-11T20:57:50.466Z,24.46
2022-08-11T21:00:39.134Z,24.39
2022-08-11T21:03:35.767Z,24.33
2022-08-11T21:06:31.448Z,24.27
2022-08-11T21:09:19.667Z,24.25
2022-08-11T21:12:03.305Z,24.21
2022-08-11T21:14:46.639Z,24.17
2022-08-11T21:17:32.875Z,24.10
2022-08-11T21:20:20.432Z,24.06
2022-08-11T21:23:07.040Z,24.01
2022-08-11T21:25:51.353Z,23.98
2022-08-11T21:28:34.291Z,23.94
2022-08-11T21:31:18.773Z,23.92
2022-08-11T21:34:01.316Z,23.87
2022-08-11T21:36:43.760Z,23.81
2022-08-11T21:39:33.375Z,23.79
2022-08-11T21:42:16.989Z,23.75
2022-08-11T21:45:00.149Z,23.71
2022-08-11T21:47:44.286Z,23.64
2022-08-11T21:50:26.529Z,23.59
2022-08-11T21:53:10.071Z,23.53
2022-08-11T21:55:54.876Z,23.49
2022-08-11T21:58:37.201Z,23.44
2022-08-11T22:01:19.510Z,23.40
2022-08-11T22:04:01.615Z,23.36
2022-08-11T22:06:44.918Z,23.32
2022-08-11T22:09:27.052Z,23.28
2022-08-11T22:12:33.816Z,23.23
2022-08-11T22:15:14.406Z,23.17
2022-08-11T22:17:58.190Z,23.11
2022-08-11T22:20:42.293Z,23.05
2022-08-11T22:23:24.134Z,23.01
2022-08-11T22:26:13.632Z,22.94
2022-08-11T22:28:58.631Z,22.88
2022-08-11T22:31:41.092Z,22.82
2022-08-11T22:34:23.458Z,22.77
2022-08-11T22:37:05.866Z,22.75
2022-08-11T22:40:01.561Z,22.70
2022-08-11T22:42:44.690Z,22.65
2022-08-11T22:45:29.617Z,22.60
2022-08-11T22:48:11.949Z,22.54
2022-08-11T22:50:54.777Z,22.47
2022-08-11T22:53:57.536Z,22.44
2022-08-11T22:56:39.537Z,22.39
2022-08-11T22:59:21.844Z,22.36
2022-08-11T23:02:06.929Z,22.30
2022-08-11T23:04:53.158Z,22.20
2022-08-11T23:07:49.414Z,22.08
2022-08-11T23:10:34.696Z,21.96
2022-08-11T23:13:22.242Z,21.86
2022-08-11T23:16:04.932Z,21.76
2022-08-11T23:18:49.849Z,21.66
2022-08-11T23:21:32.458Z,21.56
2022-08-11T23:24:15.185Z,21.49
2022-08-11T23:26:57.372Z,21.41
2022-08-11T23:29:40.094Z,21.36
2022-08-11T23:32:22.492Z,21.29
2022-08-11T23:35:38.047Z,21.21
2022-08-11T23:38:12.285Z,21.15
2022-08-11T23:40:54.457Z,21.11
2022-08-11T23:43:37.197Z,21.08
2022-08-11T23:46:19.284Z,21.04
2022-08-11T23:49:08.973Z,21.01
2022-08-11T23:51:54.802Z,21.00
2022-08-11T23:54:37.682Z,21.00
2022-08-11T23:57:20.316Z,21.02
